sensor_id;sensor_type;location;lat;lon;timestamp;temperature;humidity
9776;DHT22;4927;52.472;13.108;2023-03-20T00:01:18;8.40;99.90
9776;DHT22;4927;52.472;13.108;2023-03-20T00:02:35;8.40;99.90
9776;DHT22;4927;52.472;13.108;2023-03-20T00:03:53;8.30;99.90
9776;DHT22;4927;52.472;13.108;2023-03-20T00:05:18;8.30;99.90
9776;DHT22;4927;52.472;13.108;2023-03-20T00:06:36;8.30;99.90
9776;DHT22;4927;52.472;13.108;2023-03-20T00:07:54;8.30;99.90
9776;DHT22;4927;52.472;13.108;2023-03-20T00:09:16;8.20;99.90
9776;DHT22;4927;52.472;13.108;2023-03-20T00:10:36;8.20;99.90
9776;DHT22;4927;52.472;13.108;2023-03-20T00:11:52;8.10;99.90
9776;DHT22;4927;52.472;13.108;2023-03-20T00:13:18;8.10;99.90
9776;DHT22;4927;52.472;13.108;2023-03-20T00:14:32;8.10;99.90
9776;DHT22;4927;52.472;13.108;2023-03-20T00:15:50;8.10;99.90
9776;DHT22;4927;52.472;13.108;2023-03-20T00:17:10;8.00;99.90
9776;DHT22;4927;52.472;13.108;2023-03-20T00:18:30;8.00;99.90
9776;DHT22;4927;52.472;13.108;2023-03-20T00:19:48;8.00;99.90
9776;DHT22;4927;52.472;13.108;2023-03-20T00:21:09;8.00;99.90
9776;DHT22;4927;52.472;13.108;2023-03-20T00:22:24;8.00;99.90
9776;DHT22;4927;52.472;13.108;2023-03-20T00:23:42;8.00;99.90
9776;DHT22;4927;52.472;13.108;2023-03-20T00:25:00;7.90;99.90
9776;DHT22;4927;52.472;13.108;2023-03-20T00:26:24;8.00;99.90
9776;DHT22;4927;52.472;13.108;2023-03-20T00:27:42;7.90;99.90
9776;DHT22;4927;52.472;13.108;2023-03-20T00:29:00;7.90;99.90
9776;DHT22;4927;52.472;13.108;2023-03-20T00:30:25;7.90;99.90
9776;DHT22;4927;52.472;13.108;2023-03-20T00:31:42;7.90;99.90
9776;DHT22;4927;52.472;13.108;2023-03-20T00:33:00;7.90;99.90
9776;DHT22;4927;52.472;13.108;2023-03-20T00:34:18;7.90;99.90
9776;DHT22;4927;52.472;13.108;2023-03-20T00:35:39;7.90;99.90
9776;DHT22;4927;52.472;13.108;2023-03-20T00:36:57;7.90;99.90
9776;DHT22;4927;52.472;13.108;2023-03-20T00:38:15;7.90;99.90
9776;DHT22;4927;52.472;13.108;2023-03-20T00:39:33;7.90;99.90
9776;DHT22;4927;52.472;13.108;2023-03-20T00:40:52;7.90;99.90
9776;DHT22;4927;52.472;13.108;2023-03-20T00:42:13;7.80;99.90
9776;DHT22;4927;52.472;13.108;2023-03-20T00:43:28;7.80;99.90
9776;DHT22;4927;52.472;13.108;2023-03-20T00:44:49;7.80;99.90
9776;DHT22;4927;52.472;13.108;2023-03-20T00:46:07;7.80;99.90
9776;DHT22;4927;52.472;13.108;2023-03-20T00:47:28;7.80;99.90
9776;DHT22;4927;52.472;13.108;2023-03-20T00:48:46;7.70;99.90
9776;DHT22;4927;52.472;13.108;2023-03-20T00:50:06;7.70;99.90
9776;DHT22;4927;52.472;13.108;2023-03-20T00:51:23;7.70;99.90
9776;DHT22;4927;52.472;13.108;2023-03-20T00:52:45;7.70;99.90
9776;DHT22;4927;52.472;13.108;2023-03-20T00:54:12;7.70;99.90
9776;DHT22;4927;52.472;13.108;2023-03-20T00:55:32;7.70;99.90
9776;DHT22;4927;52.472;13.108;2023-03-20T00:57:00;7.70;99.90
9776;DHT22;4927;52.472;13.108;2023-03-20T00:58:21;7.70;99.90
9776;DHT22;4927;52.472;13.108;2023-03-20T00:59:50;7.70;99.90
9776;DHT22;4927;52.472;13.108;2023-03-20T01:01:06;7.70;99.90
9776;DHT22;4927;52.472;13.108;2023-03-20T01:02:25;7.70;99.90
9776;DHT22;4927;52.472;13.108;2023-03-20T01:03:43;7.60;99.90
9776;DHT22;4927;52.472;13.108;2023-03-20T01:05:01;7.60;99.90
9776;DHT22;4927;52.472;13.108;2023-03-20T01:06:22;7.60;99.90
9776;DHT22;4927;52.472;13.108;2023-03-20T01:07:40;7.60;99.90
9776;DHT22;4927;52.472;13.108;2023-03-20T01:09:02;7.70;99.90
9776;DHT22;4927;52.472;13.108;2023-03-20T01:10:18;7.60;99.90
9776;DHT22;4927;52.472;13.108;2023-03-20T01:11:36;7.70;99.90
9776;DHT22;4927;52.472;13.108;2023-03-20T01:12:59;7.70;99.90
9776;DHT22;4927;52.472;13.108;2023-03-20T01:14:16;7.70;99.90
9776;DHT22;4927;52.472;13.108;2023-03-20T01:15:35;7.70;99.90
9776;DHT22;4927;52.472;13.108;2023-03-20T01:16:52;7.70;99.90
9776;DHT22;4927;52.472;13.108;2023-03-20T01:18:11;7.70;99.90
9776;DHT22;4927;52.472;13.108;2023-03-20T01:19:33;7.70;99.90
9776;DHT22;4927;52.472;13.108;2023-03-20T01:20:51;7.70;99.90
9776;DHT22;4927;52.472;13.108;2023-03-20T01:22:09;7.70;99.90
9776;DHT22;4927;52.472;13.108;2023-03-20T01:23:27;7.80;99.90
9776;DHT22;4927;52.472;13.108;2023-03-20T01:24:49;7.80;99.90
9776;DHT22;4927;52.472;13.108;2023-03-20T01:26:20;7.80;99.90
9776;DHT22;4927;52.472;13.108;2023-03-20T01:27:40;7.80;99.90
9776;DHT22;4927;52.472;13.108;2023-03-20T01:28:58;7.80;99.90
9776;DHT22;4927;52.472;13.108;2023-03-20T01:30:23;7.80;99.90
9776;DHT22;4927;52.472;13.108;2023-03-20T01:31:44;7.80;99.90
9776;DHT22;4927;52.472;13.108;2023-03-20T01:33:05;7.80;99.90
9776;DHT22;4927;52.472;13.108;2023-03-20T01:34:20;7.80;99.90
9776;DHT22;4927;52.472;13.108;2023-03-20T01:35:38;7.80;99.90
9776;DHT22;4927;52.472;13.108;2023-03-20T01:36:56;7.80;99.90
9776;DHT22;4927;52.472;13.108;2023-03-20T01:38:18;7.80;99.90
9776;DHT22;4927;52.472;13.108;2023-03-20T01:39:47;7.80;99.90
9776;DHT22;4927;52.472;13.108;2023-03-20T01:41:14;7.80;99.90
9776;DHT22;4927;52.472;13.108;2023-03-20T01:42:33;7.80;99.90
9776;DHT22;4927;52.472;13.108;2023-03-20T01:43:51;7.80;99.90
9776;DHT22;4927;52.472;13.108;2023-03-20T01:45:15;7.80;99.90
9776;DHT22;4927;52.472;13.108;2023-03-20T01:46:33;7.80;99.90
9776;DHT22;4927;52.472;13.108;2023-03-20T01:47:51;7.80;99.90
9776;DHT22;4927;52.472;13.108;2023-03-20T01:51:01;7.80;99.90
9776;DHT22;4927;52.472;13.108;2023-03-20T01:52:19;7.80;99.90
9776;DHT22;4927;52.472;13.108;2023-03-20T01:53:36;7.80;99.90
9776;DHT22;4927;52.472;13.108;2023-03-20T01:54:52;7.70;99.90
9776;DHT22;4927;52.472;13.108;2023-03-20T01:56:14;7.70;99.90
9776;DHT22;4927;52.472;13.108;2023-03-20T01:57:36;7.70;99.90
9776;DHT22;4927;52.472;13.108;2023-03-20T01:58:57;7.70;99.90
9776;DHT22;4927;52.472;13.108;2023-03-20T02:00:14;7.70;99.90
9776;DHT22;4927;52.472;13.108;2023-03-20T02:01:32;7.70;99.90
9776;DHT22;4927;52.472;13.108;2023-03-20T02:02:50;7.70;99.90
9776;DHT22;4927;52.472;13.108;2023-03-20T02:04:12;7.70;99.90
9776;DHT22;4927;52.472;13.108;2023-03-20T02:05:30;7.60;99.90
9776;DHT22;4927;52.472;13.108;2023-03-20T02:06:52;7.70;99.90
9776;DHT22;4927;52.472;13.108;2023-03-20T02:08:28;7.70;99.90
9776;DHT22;4927;52.472;13.108;2023-03-20T02:09:46;7.70;99.90
9776;DHT22;4927;52.472;13.108;2023-03-20T02:11:04;7.70;99.90
9776;DHT22;4927;52.472;13.108;2023-03-20T02:12:22;7.70;99.90
9776;DHT22;4927;52.472;13.108;2023-03-20T02:13:40;7.70;99.90
9776;DHT22;4927;52.472;13.108;2023-03-20T02:14:58;7.70;99.90
9776;DHT22;4927;52.472;13.108;2023-03-20T02:16:42;7.70;99.90
9776;DHT22;4927;52.472;13.108;2023-03-20T02:18:01;7.70;99.90
9776;DHT22;4927;52.472;13.108;2023-03-20T02:19:28;7.70;99.90
9776;DHT22;4927;52.472;13.108;2023-03-20T02:24:39;7.80;99.90
9776;DHT22;4927;52.472;13.108;2023-03-20T02:26:11;7.80;99.90
9776;DHT22;4927;52.472;13.108;2023-03-20T02:27:53;7.80;99.90
9776;DHT22;4927;52.472;13.108;2023-03-20T02:40:35;7.70;99.90
9776;DHT22;4927;52.472;13.108;2023-03-20T02:42:19;7.70;99.90
9776;DHT22;4927;52.472;13.108;2023-03-20T02:44:03;7.70;99.90
9776;DHT22;4927;52.472;13.108;2023-03-20T02:45:33;7.70;99.90
9776;DHT22;4927;52.472;13.108;2023-03-20T02:48:40;7.70;99.90
9776;DHT22;4927;52.472;13.108;2023-03-20T02:50:08;7.60;99.90
9776;DHT22;4927;52.472;13.108;2023-03-20T02:51:34;7.60;99.90
9776;DHT22;4927;52.472;13.108;2023-03-20T02:54:40;7.60;99.90
9776;DHT22;4927;52.472;13.108;2023-03-20T02:56:17;7.50;99.90
9776;DHT22;4927;52.472;13.108;2023-03-20T02:57:42;7.50;99.90
9776;DHT22;4927;52.472;13.108;2023-03-20T03:01:14;7.50;99.90
9776;DHT22;4927;52.472;13.108;2023-03-20T03:02:33;7.50;99.90
9776;DHT22;4927;52.472;13.108;2023-03-20T03:03:55;7.50;99.90
9776;DHT22;4927;52.472;13.108;2023-03-20T03:05:14;7.50;99.90
9776;DHT22;4927;52.472;13.108;2023-03-20T03:06:32;7.40;99.90
9776;DHT22;4927;52.472;13.108;2023-03-20T03:07:54;7.40;99.90
9776;DHT22;4927;52.472;13.108;2023-03-20T03:09:12;7.40;99.90
9776;DHT22;4927;52.472;13.108;2023-03-20T03:10:31;7.40;99.90
9776;DHT22;4927;52.472;13.108;2023-03-20T03:11:52;7.40;99.90
9776;DHT22;4927;52.472;13.108;2023-03-20T03:13:14;7.50;99.90
9776;DHT22;4927;52.472;13.108;2023-03-20T03:14:36;7.50;99.90
9776;DHT22;4927;52.472;13.108;2023-03-20T03:15:53;7.50;99.90
9776;DHT22;4927;52.472;13.108;2023-03-20T03:17:11;7.50;99.90
9776;DHT22;4927;52.472;13.108;2023-03-20T03:18:28;7.50;99.90
9776;DHT22;4927;52.472;13.108;2023-03-20T03:19:48;7.50;99.90
9776;DHT22;4927;52.472;13.108;2023-03-20T03:21:05;7.50;99.90
9776;DHT22;4927;52.472;13.108;2023-03-20T03:22:23;7.50;99.90
9776;DHT22;4927;52.472;13.108;2023-03-20T03:23:42;7.50;99.90
9776;DHT22;4927;52.472;13.108;2023-03-20T03:24:59;7.50;99.90
9776;DHT22;4927;52.472;13.108;2023-03-20T03:26:22;7.50;99.90
9776;DHT22;4927;52.472;13.108;2023-03-20T03:27:43;7.50;99.90
9776;DHT22;4927;52.472;13.108;2023-03-20T03:29:09;7.50;99.90
9776;DHT22;4927;52.472;13.108;2023-03-20T03:30:24;7.50;99.90
9776;DHT22;4927;52.472;13.108;2023-03-20T03:31:43;7.50;99.90
9776;DHT22;4927;52.472;13.108;2023-03-20T03:33:21;7.50;99.90
9776;DHT22;4927;52.472;13.108;2023-03-20T03:34:42;7.50;99.90
9776;DHT22;4927;52.472;13.108;2023-03-20T03:36:10;7.50;99.90
9776;DHT22;4927;52.472;13.108;2023-03-20T03:37:53;7.50;99.90
9776;DHT22;4927;52.472;13.108;2023-03-20T03:40:48;7.50;99.90
9776;DHT22;4927;52.472;13.108;2023-03-20T03:42:23;7.50;99.90
9776;DHT22;4927;52.472;13.108;2023-03-20T03:44:04;7.60;99.90
9776;DHT22;4927;52.472;13.108;2023-03-20T03:45:36;7.60;99.90
9776;DHT22;4927;52.472;13.108;2023-03-20T03:46:56;7.60;99.90
9776;DHT22;4927;52.472;13.108;2023-03-20T03:48:13;7.60;99.90
9776;DHT22;4927;52.472;13.108;2023-03-20T03:49:31;7.60;99.90
9776;DHT22;4927;52.472;13.108;2023-03-20T03:50:52;7.60;99.90
9776;DHT22;4927;52.472;13.108;2023-03-20T03:52:14;7.60;99.90
9776;DHT22;4927;52.472;13.108;2023-03-20T03:53:31;7.60;99.90
9776;DHT22;4927;52.472;13.108;2023-03-20T03:55:02;7.60;99.90
9776;DHT22;4927;52.472;13.108;2023-03-20T03:56:19;7.60;99.90
9776;DHT22;4927;52.472;13.108;2023-03-20T03:57:38;7.70;99.90
9776;DHT22;4927;52.472;13.108;2023-03-20T03:58:59;7.70;99.90
9776;DHT22;4927;52.472;13.108;2023-03-20T04:00:18;7.70;99.90
9776;DHT22;4927;52.472;13.108;2023-03-20T04:01:35;7.70;99.90
9776;DHT22;4927;52.472;13.108;2023-03-20T04:02:57;7.70;99.90
9776;DHT22;4927;52.472;13.108;2023-03-20T04:04:15;7.70;99.90
9776;DHT22;4927;52.472;13.108;2023-03-20T04:05:34;7.70;99.90
9776;DHT22;4927;52.472;13.108;2023-03-20T04:06:51;7.80;99.90
9776;DHT22;4927;52.472;13.108;2023-03-20T04:08:10;7.80;99.90
9776;DHT22;4927;52.472;13.108;2023-03-20T04:09:31;7.80;99.90
9776;DHT22;4927;52.472;13.108;2023-03-20T04:10:49;7.80;99.90
9776;DHT22;4927;52.472;13.108;2023-03-20T04:12:17;7.80;99.90
9776;DHT22;4927;52.472;13.108;2023-03-20T04:13:28;7.80;99.90
9776;DHT22;4927;52.472;13.108;2023-03-20T04:14:46;7.80;99.90
9776;DHT22;4927;52.472;13.108;2023-03-20T04:16:04;7.90;99.90
9776;DHT22;4927;52.472;13.108;2023-03-20T04:17:21;7.90;99.90
9776;DHT22;4927;52.472;13.108;2023-03-20T04:18:37;7.90;99.90
9776;DHT22;4927;52.472;13.108;2023-03-20T04:20:00;7.90;99.90
9776;DHT22;4927;52.472;13.108;2023-03-20T04:21:18;7.90;99.90
9776;DHT22;4927;52.472;13.108;2023-03-20T04:22:37;7.90;99.90
9776;DHT22;4927;52.472;13.108;2023-03-20T04:23:55;7.90;99.90
9776;DHT22;4927;52.472;13.108;2023-03-20T04:25:15;7.90;99.90
9776;DHT22;4927;52.472;13.108;2023-03-20T04:26:32;8.00;99.90
9776;DHT22;4927;52.472;13.108;2023-03-20T04:27:50;8.00;99.90
9776;DHT22;4927;52.472;13.108;2023-03-20T04:29:08;8.00;99.90
9776;DHT22;4927;52.472;13.108;2023-03-20T04:30:30;8.00;99.90
9776;DHT22;4927;52.472;13.108;2023-03-20T04:31:48;8.00;99.90
9776;DHT22;4927;52.472;13.108;2023-03-20T04:33:10;8.00;99.90
9776;DHT22;4927;52.472;13.108;2023-03-20T04:34:32;8.00;99.90
9776;DHT22;4927;52.472;13.108;2023-03-20T04:35:50;8.00;99.90
9776;DHT22;4927;52.472;13.108;2023-03-20T04:37:08;8.00;99.90
9776;DHT22;4927;52.472;13.108;2023-03-20T04:38:27;8.00;99.90
9776;DHT22;4927;52.472;13.108;2023-03-20T04:39:44;8.00;99.90
9776;DHT22;4927;52.472;13.108;2023-03-20T04:41:06;8.00;99.90
9776;DHT22;4927;52.472;13.108;2023-03-20T04:42:24;8.00;99.90
9776;DHT22;4927;52.472;13.108;2023-03-20T04:43:43;8.00;99.90
9776;DHT22;4927;52.472;13.108;2023-03-20T04:45:02;8.00;99.90
9776;DHT22;4927;52.472;13.108;2023-03-20T04:46:21;8.00;99.90
9776;DHT22;4927;52.472;13.108;2023-03-20T04:47:39;8.00;99.90
9776;DHT22;4927;52.472;13.108;2023-03-20T04:48:55;8.00;99.90
9776;DHT22;4927;52.472;13.108;2023-03-20T04:50:12;8.10;99.90
9776;DHT22;4927;52.472;13.108;2023-03-20T04:51:34;8.10;99.90
9776;DHT22;4927;52.472;13.108;2023-03-20T04:52:57;8.10;99.90
9776;DHT22;4927;52.472;13.108;2023-03-20T04:54:19;8.10;99.90
9776;DHT22;4927;52.472;13.108;2023-03-20T04:55:37;8.10;99.90
9776;DHT22;4927;52.472;13.108;2023-03-20T04:56:59;8.10;99.90
9776;DHT22;4927;52.472;13.108;2023-03-20T04:58:17;8.10;99.90
9776;DHT22;4927;52.472;13.108;2023-03-20T04:59:35;8.10;99.90
9776;DHT22;4927;52.472;13.108;2023-03-20T05:00:53;8.10;99.90
9776;DHT22;4927;52.472;13.108;2023-03-20T05:02:11;8.10;99.90
9776;DHT22;4927;52.472;13.108;2023-03-20T05:03:29;8.10;99.90
9776;DHT22;4927;52.472;13.108;2023-03-20T05:04:51;8.10;99.90
9776;DHT22;4927;52.472;13.108;2023-03-20T05:06:13;8.10;99.90
9776;DHT22;4927;52.472;13.108;2023-03-20T05:07:31;8.10;99.90
9776;DHT22;4927;52.472;13.108;2023-03-20T05:08:49;8.10;99.90
9776;DHT22;4927;52.472;13.108;2023-03-20T05:10:08;8.10;99.90
9776;DHT22;4927;52.472;13.108;2023-03-20T05:11:27;8.20;99.90
9776;DHT22;4927;52.472;13.108;2023-03-20T05:12:44;8.20;99.90
9776;DHT22;4927;52.472;13.108;2023-03-20T05:14:02;8.20;99.90
9776;DHT22;4927;52.472;13.108;2023-03-20T05:15:18;8.20;99.90
9776;DHT22;4927;52.472;13.108;2023-03-20T05:16:36;8.20;99.90
9776;DHT22;4927;52.472;13.108;2023-03-20T05:17:54;8.20;99.90
9776;DHT22;4927;52.472;13.108;2023-03-20T05:19:13;8.20;99.90
9776;DHT22;4927;52.472;13.108;2023-03-20T05:20:30;8.20;99.90
9776;DHT22;4927;52.472;13.108;2023-03-20T05:21:48;8.20;99.90
9776;DHT22;4927;52.472;13.108;2023-03-20T05:23:06;8.20;99.90
9776;DHT22;4927;52.472;13.108;2023-03-20T05:24:22;8.20;99.90
9776;DHT22;4927;52.472;13.108;2023-03-20T05:25:40;8.20;99.90
9776;DHT22;4927;52.472;13.108;2023-03-20T05:26:58;8.20;99.90
9776;DHT22;4927;52.472;13.108;2023-03-20T05:28:14;8.20;99.90
9776;DHT22;4927;52.472;13.108;2023-03-20T05:29:31;8.20;99.90
9776;DHT22;4927;52.472;13.108;2023-03-20T05:30:49;8.30;99.90
9776;DHT22;4927;52.472;13.108;2023-03-20T05:32:08;8.30;99.90
9776;DHT22;4927;52.472;13.108;2023-03-20T05:33:26;8.30;99.90
9776;DHT22;4927;52.472;13.108;2023-03-20T05:34:44;8.30;99.90
9776;DHT22;4927;52.472;13.108;2023-03-20T05:36:03;8.30;99.90
9776;DHT22;4927;52.472;13.108;2023-03-20T05:37:21;8.30;99.90
9776;DHT22;4927;52.472;13.108;2023-03-20T05:38:39;8.30;99.90
9776;DHT22;4927;52.472;13.108;2023-03-20T05:39:57;8.30;99.90
9776;DHT22;4927;52.472;13.108;2023-03-20T05:41:15;8.30;99.90
9776;DHT22;4927;52.472;13.108;2023-03-20T05:42:33;8.30;99.90
9776;DHT22;4927;52.472;13.108;2023-03-20T05:43:49;8.40;99.90
9776;DHT22;4927;52.472;13.108;2023-03-20T05:45:08;8.40;99.90
9776;DHT22;4927;52.472;13.108;2023-03-20T05:46:26;8.40;99.90
9776;DHT22;4927;52.472;13.108;2023-03-20T05:47:44;8.40;99.90
9776;DHT22;4927;52.472;13.108;2023-03-20T05:49:02;8.40;99.90
9776;DHT22;4927;52.472;13.108;2023-03-20T05:50:20;8.40;99.90
9776;DHT22;4927;52.472;13.108;2023-03-20T05:51:38;8.40;99.90
9776;DHT22;4927;52.472;13.108;2023-03-20T05:52:54;8.40;99.90
9776;DHT22;4927;52.472;13.108;2023-03-20T05:54:12;8.40;99.90
9776;DHT22;4927;52.472;13.108;2023-03-20T05:55:30;8.40;99.90
9776;DHT22;4927;52.472;13.108;2023-03-20T05:56:48;8.40;99.90
9776;DHT22;4927;52.472;13.108;2023-03-20T05:58:06;8.40;99.90
9776;DHT22;4927;52.472;13.108;2023-03-20T05:59:24;8.50;99.90
9776;DHT22;4927;52.472;13.108;2023-03-20T06:00:42;8.50;99.90
9776;DHT22;4927;52.472;13.108;2023-03-20T06:02:00;8.50;99.90
9776;DHT22;4927;52.472;13.108;2023-03-20T06:03:18;8.60;99.90
9776;DHT22;4927;52.472;13.108;2023-03-20T06:04:36;8.50;99.90
9776;DHT22;4927;52.472;13.108;2023-03-20T06:05:54;8.50;99.90
9776;DHT22;4927;52.472;13.108;2023-03-20T06:07:12;8.60;99.90
9776;DHT22;4927;52.472;13.108;2023-03-20T06:08:30;8.60;99.90
9776;DHT22;4927;52.472;13.108;2023-03-20T06:09:49;8.60;99.90
9776;DHT22;4927;52.472;13.108;2023-03-20T06:11:07;8.60;99.90
9776;DHT22;4927;52.472;13.108;2023-03-20T06:12:24;8.60;99.90
9776;DHT22;4927;52.472;13.108;2023-03-20T06:13:42;8.60;99.90
9776;DHT22;4927;52.472;13.108;2023-03-20T06:15:00;8.60;99.90
9776;DHT22;4927;52.472;13.108;2023-03-20T06:16:18;8.60;99.90
9776;DHT22;4927;52.472;13.108;2023-03-20T06:17:36;8.60;99.90
9776;DHT22;4927;52.472;13.108;2023-03-20T06:18:58;8.60;99.90
9776;DHT22;4927;52.472;13.108;2023-03-20T06:20:16;8.60;99.90
9776;DHT22;4927;52.472;13.108;2023-03-20T06:21:34;8.60;99.90
9776;DHT22;4927;52.472;13.108;2023-03-20T06:22:53;8.60;99.90
9776;DHT22;4927;52.472;13.108;2023-03-20T06:24:11;8.60;99.90
9776;DHT22;4927;52.472;13.108;2023-03-20T06:25:29;8.60;99.90
9776;DHT22;4927;52.472;13.108;2023-03-20T06:26:47;8.60;99.90
9776;DHT22;4927;52.472;13.108;2023-03-20T06:28:05;8.60;99.90
9776;DHT22;4927;52.472;13.108;2023-03-20T06:29:25;8.60;99.90
9776;DHT22;4927;52.472;13.108;2023-03-20T06:30:43;8.60;99.90
9776;DHT22;4927;52.472;13.108;2023-03-20T06:32:01;8.60;99.90
9776;DHT22;4927;52.472;13.108;2023-03-20T06:33:20;8.50;99.90
9776;DHT22;4927;52.472;13.108;2023-03-20T06:34:37;8.50;99.90
9776;DHT22;4927;52.472;13.108;2023-03-20T06:35:55;8.50;99.90
9776;DHT22;4927;52.472;13.108;2023-03-20T06:37:14;8.60;99.90
9776;DHT22;4927;52.472;13.108;2023-03-20T06:38:32;8.60;99.90
9776;DHT22;4927;52.472;13.108;2023-03-20T06:39:50;8.60;99.90
9776;DHT22;4927;52.472;13.108;2023-03-20T06:41:07;8.60;99.90
9776;DHT22;4927;52.472;13.108;2023-03-20T06:42:26;8.60;99.90
9776;DHT22;4927;52.472;13.108;2023-03-20T06:43:45;8.60;99.90
9776;DHT22;4927;52.472;13.108;2023-03-20T06:45:04;8.60;99.90
9776;DHT22;4927;52.472;13.108;2023-03-20T06:46:22;8.60;99.90
9776;DHT22;4927;52.472;13.108;2023-03-20T06:47:40;8.60;99.90
9776;DHT22;4927;52.472;13.108;2023-03-20T06:48:56;8.60;99.90
9776;DHT22;4927;52.472;13.108;2023-03-20T06:50:14;8.60;99.90
9776;DHT22;4927;52.472;13.108;2023-03-20T06:51:32;8.60;99.90
9776;DHT22;4927;52.472;13.108;2023-03-20T06:52:50;8.60;99.90
9776;DHT22;4927;52.472;13.108;2023-03-20T06:54:08;8.60;99.90
9776;DHT22;4927;52.472;13.108;2023-03-20T06:55:26;8.60;99.90
9776;DHT22;4927;52.472;13.108;2023-03-20T06:56:48;8.60;99.90
9776;DHT22;4927;52.472;13.108;2023-03-20T06:58:05;8.60;99.90
9776;DHT22;4927;52.472;13.108;2023-03-20T06:59:24;8.60;99.90
9776;DHT22;4927;52.472;13.108;2023-03-20T07:00:43;8.60;99.90
9776;DHT22;4927;52.472;13.108;2023-03-20T07:02:01;8.60;99.90
9776;DHT22;4927;52.472;13.108;2023-03-20T07:03:19;8.60;99.90
9776;DHT22;4927;52.472;13.108;2023-03-20T07:04:36;8.60;99.90
9776;DHT22;4927;52.472;13.108;2023-03-20T07:05:58;8.60;99.90
9776;DHT22;4927;52.472;13.108;2023-03-20T07:07:16;8.60;99.90
9776;DHT22;4927;52.472;13.108;2023-03-20T07:08:34;8.60;99.90
9776;DHT22;4927;52.472;13.108;2023-03-20T07:09:52;8.60;99.90
9776;DHT22;4927;52.472;13.108;2023-03-20T07:11:08;8.50;99.90
9776;DHT22;4927;52.472;13.108;2023-03-20T07:12:30;8.60;99.90
9776;DHT22;4927;52.472;13.108;2023-03-20T07:13:46;8.60;99.90
9776;DHT22;4927;52.472;13.108;2023-03-20T07:15:05;8.60;99.90
9776;DHT22;4927;52.472;13.108;2023-03-20T07:16:23;8.60;99.90
9776;DHT22;4927;52.472;13.108;2023-03-20T07:17:42;8.60;99.90
9776;DHT22;4927;52.472;13.108;2023-03-20T07:19:04;8.60;99.90
9776;DHT22;4927;52.472;13.108;2023-03-20T07:20:22;8.60;99.90
9776;DHT22;4927;52.472;13.108;2023-03-20T07:21:39;8.60;99.90
9776;DHT22;4927;52.472;13.108;2023-03-20T07:22:57;8.60;99.90
9776;DHT22;4927;52.472;13.108;2023-03-20T07:24:15;8.60;99.90
9776;DHT22;4927;52.472;13.108;2023-03-20T07:25:33;8.70;99.90
9776;DHT22;4927;52.472;13.108;2023-03-20T07:26:51;8.70;99.90
9776;DHT22;4927;52.472;13.108;2023-03-20T07:28:09;8.70;99.90
9776;DHT22;4927;52.472;13.108;2023-03-20T07:29:27;8.70;99.90
9776;DHT22;4927;52.472;13.108;2023-03-20T07:30:45;8.70;99.90
9776;DHT22;4927;52.472;13.108;2023-03-20T07:32:02;8.80;99.90
9776;DHT22;4927;52.472;13.108;2023-03-20T07:33:20;8.80;99.90
9776;DHT22;4927;52.472;13.108;2023-03-20T07:34:38;8.90;99.90
9776;DHT22;4927;52.472;13.108;2023-03-20T07:35:56;8.90;99.90
9776;DHT22;4927;52.472;13.108;2023-03-20T07:37:15;8.90;99.90
9776;DHT22;4927;52.472;13.108;2023-03-20T07:38:33;9.00;99.90
9776;DHT22;4927;52.472;13.108;2023-03-20T07:39:50;9.00;99.90
9776;DHT22;4927;52.472;13.108;2023-03-20T07:41:08;9.00;99.90
9776;DHT22;4927;52.472;13.108;2023-03-20T07:42:26;9.10;99.90
9776;DHT22;4927;52.472;13.108;2023-03-20T07:43:44;9.10;99.90
9776;DHT22;4927;52.472;13.108;2023-03-20T07:45:03;9.10;99.90
9776;DHT22;4927;52.472;13.108;2023-03-20T07:46:21;9.10;99.90
9776;DHT22;4927;52.472;13.108;2023-03-20T07:47:40;9.20;99.90
9776;DHT22;4927;52.472;13.108;2023-03-20T07:48:57;9.20;99.90
9776;DHT22;4927;52.472;13.108;2023-03-20T07:50:15;9.30;99.90
9776;DHT22;4927;52.472;13.108;2023-03-20T07:51:34;9.40;99.90
9776;DHT22;4927;52.472;13.108;2023-03-20T07:52:52;9.40;99.90
9776;DHT22;4927;52.472;13.108;2023-03-20T07:54:08;9.40;99.90
9776;DHT22;4927;52.472;13.108;2023-03-20T07:55:24;9.50;99.90
9776;DHT22;4927;52.472;13.108;2023-03-20T07:56:42;9.50;99.90
9776;DHT22;4927;52.472;13.108;2023-03-20T07:57:59;9.60;99.90
9776;DHT22;4927;52.472;13.108;2023-03-20T07:59:18;9.60;99.90
9776;DHT22;4927;52.472;13.108;2023-03-20T08:00:36;9.60;99.90
9776;DHT22;4927;52.472;13.108;2023-03-20T08:01:54;9.60;99.90
9776;DHT22;4927;52.472;13.108;2023-03-20T08:03:12;9.60;99.90
9776;DHT22;4927;52.472;13.108;2023-03-20T08:04:29;9.60;99.90
9776;DHT22;4927;52.472;13.108;2023-03-20T08:05:46;9.60;99.90
9776;DHT22;4927;52.472;13.108;2023-03-20T08:07:04;9.60;99.90
9776;DHT22;4927;52.472;13.108;2023-03-20T08:08:22;9.60;99.90
9776;DHT22;4927;52.472;13.108;2023-03-20T08:09:38;9.60;99.90
9776;DHT22;4927;52.472;13.108;2023-03-20T08:10:56;9.60;99.90
9776;DHT22;4927;52.472;13.108;2023-03-20T08:12:15;9.60;99.90
9776;DHT22;4927;52.472;13.108;2023-03-20T08:13:33;9.60;99.90
9776;DHT22;4927;52.472;13.108;2023-03-20T08:14:52;9.70;99.90
9776;DHT22;4927;52.472;13.108;2023-03-20T08:16:08;9.70;99.90
9776;DHT22;4927;52.472;13.108;2023-03-20T08:17:26;9.70;99.90
9776;DHT22;4927;52.472;13.108;2023-03-20T08:18:44;9.70;99.90
9776;DHT22;4927;52.472;13.108;2023-03-20T08:20:01;9.80;99.90
9776;DHT22;4927;52.472;13.108;2023-03-20T08:21:18;9.80;99.90
9776;DHT22;4927;52.472;13.108;2023-03-20T08:22:35;9.80;99.90
9776;DHT22;4927;52.472;13.108;2023-03-20T08:23:53;9.90;99.90
9776;DHT22;4927;52.472;13.108;2023-03-20T08:25:11;9.90;99.90
9776;DHT22;4927;52.472;13.108;2023-03-20T08:26:29;10.00;99.90
9776;DHT22;4927;52.472;13.108;2023-03-20T08:27:47;10.00;99.90
9776;DHT22;4927;52.472;13.108;2023-03-20T08:29:05;10.10;99.90
9776;DHT22;4927;52.472;13.108;2023-03-20T08:30:23;10.20;99.90
9776;DHT22;4927;52.472;13.108;2023-03-20T08:31:41;10.20;99.90
9776;DHT22;4927;52.472;13.108;2023-03-20T08:32:58;10.30;99.90
9776;DHT22;4927;52.472;13.108;2023-03-20T08:34:16;10.30;99.90
9776;DHT22;4927;52.472;13.108;2023-03-20T08:35:34;10.40;99.90
9776;DHT22;4927;52.472;13.108;2023-03-20T08:36:52;10.50;99.90
9776;DHT22;4927;52.472;13.108;2023-03-20T08:38:11;10.60;99.90
9776;DHT22;4927;52.472;13.108;2023-03-20T08:39:27;10.70;99.90
9776;DHT22;4927;52.472;13.108;2023-03-20T08:40:45;10.70;99.90
9776;DHT22;4927;52.472;13.108;2023-03-20T08:42:01;10.90;99.90
9776;DHT22;4927;52.472;13.108;2023-03-20T08:43:19;10.90;99.90
9776;DHT22;4927;52.472;13.108;2023-03-20T08:44:41;10.90;99.90
9776;DHT22;4927;52.472;13.108;2023-03-20T08:45:59;11.00;99.90
9776;DHT22;4927;52.472;13.108;2023-03-20T08:47:17;11.00;99.90
9776;DHT22;4927;52.472;13.108;2023-03-20T08:48:33;11.10;99.90
9776;DHT22;4927;52.472;13.108;2023-03-20T08:49:51;11.10;99.90
9776;DHT22;4927;52.472;13.108;2023-03-20T08:51:09;11.20;99.90
9776;DHT22;4927;52.472;13.108;2023-03-20T08:52:27;11.20;99.90
9776;DHT22;4927;52.472;13.108;2023-03-20T08:53:46;11.30;99.90
9776;DHT22;4927;52.472;13.108;2023-03-20T08:55:05;11.30;99.90
9776;DHT22;4927;52.472;13.108;2023-03-20T08:56:23;11.30;99.90
9776;DHT22;4927;52.472;13.108;2023-03-20T08:57:40;11.30;99.90
9776;DHT22;4927;52.472;13.108;2023-03-20T08:58:55;11.30;99.90
9776;DHT22;4927;52.472;13.108;2023-03-20T09:00:14;11.30;99.90
9776;DHT22;4927;52.472;13.108;2023-03-20T09:01:33;11.20;99.90
9776;DHT22;4927;52.472;13.108;2023-03-20T09:02:50;11.30;99.90